Latest Coastal Weather Observations for Wilsons Promontory

IDT60701

Issued at 8:42 pm EST Friday 19 July 2019 (issued every 10 minutes, with the page automatically refreshed every 10 minutes)

About coastal observations | Map of coastal stations | Coastal observations for TAS | Marine services | Other Formats
Station Details ID: 085096 Name: WILSONS PROMONTORY LIGHTHOUSE Lat: -39.13 Lon: 146.42 Height: 95.0 m
Data from the previous 72 hours. | See also: Recent months at Wilsons Promontory
Date/Time
EST
Wind Sea
Height
m
Swell Vis
km
Cloud Weather Temp
°C
Press
hPa
Rain since
9am
mm
Dir  Spd
kts
Gust
kts
Height
m
Period
s
Dir
19/08:30pm W 12 17 - - - - - - - 10.9 1020.0 0.0
19/08:00pm W 11 17 - - - - - - - 11.0 1019.9 0.0
19/07:30pm W 11 18 - - - - - - - 11.3 1019.8 0.0
19/07:00pm W 16 22 - - - - - - - 11.7 1019.5 0.0
19/06:30pm W 15 24 - - - - - - - 11.5 1019.3 0.0
19/06:17pm W 16 26 - - - - - - - 11.5 1019.0 0.0
19/06:00pm W 18 26 - - - - - - - 11.4 1018.9 0.0
19/05:30pm W 22 32 - - - - - - - 11.1 1018.7 0.0
19/05:01pm W 19 29 - - - - - - - 11.6 1018.5 0.0
19/05:00pm W 20 29 - - - - - - - 11.6 1018.5 0.0
19/04:30pm W 19 29 - - - - - - - 11.7 1018.2 0.0
19/04:02pm W 17 27 - - - - - - - 11.7 1018.1 0.0
19/04:00pm W 18 27 - - - - - - - 11.7 1018.0 0.0
19/03:30pm W 18 25 - - - - - - - 11.9 1018.0 0.0
19/03:03pm W 16 26 - - - - - - - 12.1 1017.8 0.0
19/03:00pm W 17 26 - - - - - - - 12.1 1017.8 0.0
19/02:35pm W 19 30 - - - - - - - 12.2 1017.5 0.0
19/02:30pm W 18 25 - - - - - - - 12.2 1017.5 0.0
19/02:00pm W 20 27 - - - - - - - 11.9 1017.3 0.0
19/01:43pm W 16 27 - - - - - - - 12.0 1017.2 0.0
19/01:30pm W 21 26 - - - - - - - 12.0 1017.4 0.0
19/01:00pm W 21 27 - - - - - - - 12.1 1017.3 0.0
19/12:30pm W 19 32 - - - - - - - 12.9 1017.6 0.0
19/12:11pm W 19 29 - - - - - - - 12.4 1017.7 0.0
19/12:00pm W 20 27 - - - - - - - 12.6 1017.8 0.0
19/11:30am W 19 29 - - - - - - - 11.7 1017.9 0.0
19/11:00am W 21 31 - - - - - - - 12.0 1018.3 0.0
19/10:30am W 23 33 - - - - - - - 11.5 1018.0 0.0
19/10:27am W 22 33 - - - - - - - 11.8 1017.8 0.0
19/10:00am W 24 32 - - - - - - - 12.1 1017.6 0.0
19/09:32am W 23 33 - - - - - - - 11.9 1017.1 0.0
19/09:30am W 23 30 - - - - - - - 11.9 1017.2 0.0
19/09:11am W 21 31 - - - - - - - 11.3 1016.9 0.0
19/09:00am W 22 31 - - - - - - - 11.3 1016.7 4.0
19/08:42am W 24 34 - - - - - - - 11.3 1016.4 -
19/08:30am W 25 32 - - - - - - - 11.4 1016.0 -
19/08:01am W 23 33 - - - - - - - 11.5 1015.4 3.6
19/08:00am W 23 31 - - - - - - - 11.4 1015.5 3.6
19/07:40am W 27 37 - - - - - - - 11.4 1015.4 3.6
19/07:30am W 32 39 - - - - - - - 11.3 1015.0 3.6
19/07:00am W 30 39 - - - - - - - 11.3 1014.8 3.6
19/06:43am W 28 38 - - - - - - - 11.2 1014.7 3.6
19/06:30am W 28 36 - - - - - - - 11.3 1014.7 3.6
19/06:00am W 24 34 - - - - - - - 11.4 1014.4 3.6
19/05:30am W 24 34 - - - - - - - 11.4 1014.2 3.6
19/05:00am W 22 32 - - - - - - - 11.3 1014.0 3.6
19/04:38am W 24 34 - - - - - - - 11.3 1013.6 3.6
19/04:30am W 25 34 - - - - - - - 11.4 1013.4 3.6
19/04:10am W 29 39 - - - - - - - 11.3 1013.1 3.6
19/04:00am W 29 38 - - - - - - - 11.3 1013.1 3.6
19/03:31am W 33 43 - - - - - - - 11.3 1012.8 3.6
19/03:30am W 34 43 - - - - - - - 11.3 1012.6 3.6
19/03:01am W 30 41 - - - - - - - 11.5 1012.1 3.6
19/03:00am W 30 39 - - - - - - - 11.6 1012.3 3.6
19/02:31am W 26 36 - - - - - - - 11.4 1012.3 3.6
19/02:30am W 27 36 - - - - - - - 11.3 1012.4 3.6
19/02:00am W 29 40 - - - - - - - 11.3 1011.6 3.6
19/01:36am W 29 39 - - - - - - - 11.2 1011.1 3.6
19/01:30am W 30 38 - - - - - - - 11.0 1011.1 3.6
19/01:00am W 32 46 - - - - - - - 10.7 1010.7 3.6
19/12:30am WNW 31 55 - - - - - - - 10.8 1009.9 1.0
19/12:25am WNW 26 55 - - - - - - - 10.8 1009.7 0.8
19/12:00am WNW 16 41 - - - - - - - 10.8 1010.5 0.6
 
Date/Time
EST
Wind Sea
Height
m
Swell Vis
km
Cloud Weather Temp
°C
Press
hPa
Rain since
9am
mm
Dir  Spd
kts
Gust
kts
Height
m
Period
s
Dir
18/11:30pm NW 17 41 - - - - - - - 10.4 1009.9 0.6
18/11:14pm NNW 15 38 - - - - - - - 10.3 1009.9 0.6
18/11:00pm NNW 10 24 - - - - - - - 10.5 1010.4 0.4
18/10:40pm NW 16 37 - - - - - - - 11.1 1009.9 0.0
18/10:30pm W 13 30 - - - - - - - 11.0 1010.0 0.0
18/10:01pm WNW 15 45 - - - - - - - 11.1 1009.5 0.0
18/10:00pm WNW 13 32 - - - - - - - 11.0 1009.9 0.0
18/09:50pm WNW 17 35 - - - - - - - 11.0 1009.8 0.0
18/09:30pm NW 12 27 - - - - - - - 11.0 1010.0 0.0
18/09:27pm NW 15 29 - - - - - - - 10.8 1010.1 0.0
18/09:00pm N 10 33 - - - - - - - 10.8 1010.9 0.0
18/08:53pm W 16 40 - - - - - - - 10.8 1010.6 0.0
18/08:30pm WNW 10 23 - - - - - - - 10.7 1010.8 0.0
18/08:10pm WNW 15 28 - - - - - - - 11.0 1011.1 0.0
18/08:00pm NNW 10 24 - - - - - - - 11.0 1011.3 0.0
18/07:30pm NNW 13 25 - - - - - - - 11.0 1011.2 0.0
18/07:00pm NNW 16 27 - - - - - - - 11.1 1011.4 0.0
18/06:34pm NNW 15 28 - - - - - - - 10.8 1011.5 0.0
18/06:30pm NNW 13 28 - - - - - - - 10.7 1011.5 0.0
18/06:00pm NNW 14 31 - - - - - - - 10.7 1011.8 0.0
18/05:40pm NNW 15 26 - - - - - - - 10.6 1011.3 0.0
18/05:30pm NNW 14 30 - - - - - - - 10.5 1011.3 0.0
18/05:19pm NNW 17 27 - - - - - - - 10.2 1011.1 0.0
18/05:00pm NNW 6 15 - - - - - - - 9.9 1012.0 0.0
18/04:30pm W 14 28 - - - - - - - 10.1 1012.5 0.0
18/04:00pm W 20 33 - - - - - - - 10.3 1012.5 0.0
18/03:30pm W 18 29 - - - - - - - 10.6 1012.5 0.0
18/03:00pm W 17 29 - - - - - - - 10.9 1012.4 0.0
18/02:30pm W 15 27 - - - - - - - 11.3 1012.3 0.0
18/02:00pm W 19 38 - - - - - - - 11.3 1012.3 0.0
18/01:30pm W 24 36 - - - - - - - 11.4 1012.5 0.0
18/01:00pm W 22 36 - - - - - - - 11.6 1013.0 0.0
18/12:42pm W 23 33 - - - - - - - 11.8 1013.3 0.0
18/12:30pm W 24 32 - - - - - - - 12.2 1013.4 0.0
18/12:10pm W 21 31 - - - - - - - 11.9 1013.8 0.0
18/12:00pm W 20 28 - - - - - - - 11.8 1013.9 0.0
18/11:31am W 18 28 - - - - - - - 11.9 1014.2 0.0
18/11:30am W 19 28 - - - - - - - 11.9 1014.2 0.0
18/11:14am W 19 29 - - - - - - - 11.8 1014.4 0.0
18/11:00am W 20 27 - - - - - - - 12.1 1014.4 0.0
18/10:35am W 18 28 - - - - - - - 12.2 1014.4 0.0
18/10:30am W 19 26 - - - - - - - 12.5 1014.6 0.0
18/10:06am W 19 29 - - - - - - - 11.8 1014.6 0.0
18/10:00am W 20 29 - - - - - - - 11.6 1014.4 0.0
18/09:36am W 21 32 - - - - - - - 11.5 1014.1 0.0
18/09:30am W 20 27 - - - - - - - 11.6 1014.1 0.0
18/09:18am W 17 27 - - - - - - - 11.5 1014.2 0.0
18/09:00am W 24 31 - - - - - - - 11.3 1014.4 8.8
18/08:42am W 20 31 - - - - - - - 11.4 1013.9 8.8
18/08:30am W 21 28 - - - - - - - 11.3 1014.1 8.8
18/08:10am W 22 32 - - - - - - - 11.2 1013.5 8.8
18/08:00am W 24 30 - - - - - - - 11.2 1013.6 8.8
18/07:40am WSW 18 28 - - - - - - - 10.8 1013.5 8.8
18/07:30am WSW 22 28 - - - - - - - 10.6 1013.5 8.8
18/07:19am WSW 27 38 - - - - - - - 10.2 1012.9 8.8
18/07:07am WSW 38 42 - - - - - - - 10.2 1012.1 8.8
18/07:06am WSW 25 42 - - - - - - - 10.4 1012.1 8.8
18/07:00am W 22 29 - - - - - - - 10.5 1012.7 8.8
18/06:41am W 23 33 - - - - - - - 11.2 1012.3 8.8
18/06:30am W 23 30 - - - - - - - 10.8 1012.4 8.8
18/06:21am WSW 30 40 - - - - - - - 10.8 1012.4 8.8
18/06:00am WSW 33 40 - - - - - - - 11.3 1011.9 8.8
18/05:30am WSW 36 42 - - - - - - - 11.1 1011.5 8.8
18/05:00am WSW 34 41 - - - - - - - 11.1 1011.2 8.8
18/04:30am WSW 37 50 - - - - - - - 11.1 1011.0 8.8
18/04:00am WSW 38 48 - - - - - - - 10.2 1010.7 8.8
18/03:53am WSW 37 42 - - - - - - - 10.1 1010.7 8.6
18/03:33am W 26 36 - - - - - - - 10.7 1011.2 8.6
18/03:30am W 28 36 - - - - - - - 10.7 1011.2 8.6
18/03:01am W 29 39 - - - - - - - 10.1 1010.9 8.6
18/03:00am W 30 39 - - - - - - - 10.0 1010.8 8.6
18/02:30am W 27 37 - - - - - - - 10.8 1010.7 7.8
18/02:00am WSW 34 50 - - - - - - - 11.1 1010.3 7.8
18/01:39am W 34 52 - - - - - - - 11.1 1009.8 7.8
18/01:33am WSW 33 59 - - - - - - - 11.3 1009.6 7.8
18/01:30am WSW 49 59 - - - - - - - 11.3 1008.8 7.8
18/01:26am WSW 48 59 - - - - - - - 11.1 1008.5 7.8
18/01:24am WSW 45 53 - - - - - - - 11.1 1009.0 7.8
18/01:19am W 32 56 - - - - - - - 11.3 1009.3 7.8
18/01:18am W 33 56 - - - - - - - 11.3 1009.2 7.8
18/01:11am WSW 46 56 - - - - - - - 11.0 1008.6 7.8
18/01:04am WSW 47 52 - - - - - - - 10.9 1008.8 7.8
18/01:00am W 33 48 - - - - - - - 11.7 1009.4 7.8
18/12:30am W 31 43 - - - - - - - 11.0 1009.5 7.8
18/12:00am W 28 39 - - - - - - - 11.0 1009.6 7.8
 
Date/Time
EST
Wind Sea
Height
m
Swell Vis
km
Cloud Weather Temp
°C
Press
hPa
Rain since
9am
mm
Dir  Spd
kts
Gust
kts
Height
m
Period
s
Dir
17/11:30pm W 35 46 - - - - - - - 10.7 1009.3 7.8
17/11:00pm W 30 44 - - - - - - - 10.7 1009.5 7.8
17/10:30pm W 27 40 - - - - - - - 11.3 1009.4 7.0
17/10:00pm W 35 48 - - - - - - - 11.4 1009.2 7.0
17/09:54pm W 37 48 - - - - - - - 11.5 1009.0 7.0
17/09:53pm W 39 48 - - - - - - - 11.6 1008.8 7.0
17/09:30pm W 26 40 - - - - - - - 11.9 1009.3 7.0
17/09:00pm W 29 40 - - - - - - - 11.7 1009.1 7.0
17/08:31pm W 31 41 - - - - - - - 11.7 1008.9 7.0
17/08:30pm W 32 41 - - - - - - - 11.8 1008.7 7.0
17/08:21pm W 35 42 - - - - - - - 11.7 1008.4 7.0
17/08:00pm WSW 21 37 - - - - - - - 11.6 1008.8 7.0
17/07:59pm WSW 19 39 - - - - - - - 11.6 1009.0 7.0
17/07:30pm W 28 39 - - - - - - - 11.7 1008.4 7.0
17/07:13pm W 29 48 - - - - - - - 11.8 1007.9 7.0
17/07:00pm W 25 36 - - - - - - - 11.7 1008.7 7.0
17/06:30pm W 31 41 - - - - - - - 11.6 1008.0 7.0
17/06:24pm W 35 45 - - - - - - - 11.7 1008.0 7.0
17/06:17pm W 38 45 - - - - - - - 11.7 1007.3 7.0
17/06:00pm W 27 39 - - - - - - - 11.6 1007.5 7.0
17/05:30pm W 31 45 - - - - - - - 11.6 1007.3 7.0
17/05:00pm W 34 52 - - - - - - - 10.9 1007.0 7.0
17/04:30pm W 29 48 - - - - - - - 10.3 1007.1 7.0
17/04:20pm W 28 56 - - - - - - - 10.2 1007.1 7.0
17/04:08pm W 42 57 - - - - - - - 9.2 1005.9 3.8
17/04:00pm W 25 46 - - - - - - - 11.0 1007.1 1.6
17/03:30pm W 23 37 - - - - - - - 11.1 1007.0 0.2
17/03:00pm W 25 43 - - - - - - - 11.3 1007.1 0.2
17/02:30pm W 23 43 - - - - - - - 11.3 1007.3 0.2
17/02:00pm W 25 42 - - - - - - - 11.2 1007.5 0.2
17/01:30pm W 24 42 - - - - - - - 11.0 1008.0 0.2
17/01:00pm W 24 40 - - - - - - - 11.0 1008.4 0.2
17/12:30pm W 23 39 - - - - - - - 10.9 1008.8 0.2
17/12:00pm W 23 42 - - - - - - - 10.6 1009.8 0.2
17/11:30am W 22 37 - - - - - - - 10.6 1010.4 0.0
17/11:00am W 24 37 - - - - - - - 10.6 1010.9 0.0
17/10:30am WNW 24 38 - - - - - - - 10.4 1011.5 0.0
17/10:00am WNW 19 40 - - - - - - - 10.1 1011.8 0.0
17/09:30am W 20 42 - - - - - - - 9.7 1012.1 0.0
17/09:29am W 18 42 - - - - - - - 9.7 1012.3 0.0
17/09:13am W 30 42 - - - - - - - 9.7 1011.9 0.0
17/09:00am W 16 39 - - - - - - - 9.8 1012.3 6.2
17/08:59am W 14 39 - - - - - - - 9.8 1012.4 6.2
17/08:30am WNW 21 38 - - - - - - - 10.0 1012.5 6.2
17/08:00am WNW 19 34 - - - - - - - 9.8 1012.8 6.2
17/07:30am W 24 39 - - - - - - - 9.9 1012.6 6.2
17/07:00am W 23 40 - - - - - - - 10.3 1012.6 6.2
17/06:30am W 24 34 - - - - - - - 10.5 1013.4 6.2
17/06:00am W 25 38 - - - - - - - 10.9 1013.3 6.2
17/05:30am W 29 41 - - - - - - - 10.9 1013.3 6.2
17/05:00am W 28 42 - - - - - - - 10.0 1013.4 6.2
17/04:30am W 30 42 - - - - - - - 10.2 1013.5 5.8
17/04:00am W 28 41 - - - - - - - 10.4 1013.6 4.8
17/03:30am W 25 40 - - - - - - - 10.7 1014.2 4.4
17/03:00am W 24 34 - - - - - - - 10.6 1014.9 4.2
17/02:30am W 24 36 - - - - - - - 10.9 1014.9 4.2
17/02:00am W 25 35 - - - - - - - 11.0 1015.5 4.2
17/01:32am W 25 38 - - - - - - - 11.5 1015.3 4.2
17/01:30am W 24 33 - - - - - - - 11.5 1015.7 4.2
17/01:03am W 25 35 - - - - - - - 11.9 1015.8 4.2
17/01:00am W 26 35 - - - - - - - 11.9 1015.6 4.2
17/12:30am W 27 42 - - - - - - - 11.9 1015.4 4.2
17/12:17am W 23 36 - - - - - - - 11.4 1015.8 4.0
17/12:13am W 21 38 - - - - - - - 11.4 1016.0 4.0
17/12:05am W 34 44 - - - - - - - 11.3 1015.9 4.0
17/12:02am W 38 44 - - - - - - - 11.6 1015.4 4.0
17/12:00am W 27 44 - - - - - - - 11.7 1015.5 4.0
 
Date/Time
EST
Wind Sea
Height
m
Swell Vis
km
Cloud Weather Temp
°C
Press
hPa
Rain since
9am
mm
Dir  Spd
kts
Gust
kts
Height
m
Period
s
Dir
16/11:49pm W 25 35 - - - - - - - 11.9 1016.0 4.0
16/11:30pm W 29 37 - - - - - - - 11.6 1015.8 4.0
16/11:00pm W 22 32 - - - - - - - 11.9 1016.4 4.0
16/10:37pm W 26 36 - - - - - - - 12.1 1016.4 4.0
16/10:30pm W 27 36 - - - - - - - 11.9 1016.3 4.0
16/10:00pm W 27 37 - - - - - - - 12.0 1016.4 4.0
16/09:33pm W 26 36 - - - - - - - 11.6 1016.6 4.0
16/09:30pm W 27 36 - - - - - - - 11.7 1016.6 4.0
16/09:00pm W 29 41 - - - - - - - 11.7 1016.6 4.0

Other formats

Comma delimited format used in spreadsheet applications
http://www.bom.gov.au/fwo/IDT60701/IDT60701.94893.axf

JavaScript Object Notation format (JSON) in row-major order
http://www.bom.gov.au/fwo/IDT60701/IDT60701.94893.json

Data quality

Most of these data are generated automatically and are frequently updated. Quality checks on data are not normally performed. It is possible for incorrect values to appear. Refer to information at About Latest Weather Observations and please check the disclaimer before using these data.